Spirit of New Zealand — ZMSV — position and weather

sailwx.info

Track history (hours):
 
Tides and Currents Weather Stations Pressure Air Temp Water Temp Dewpoint Dewpoint Depression Visibility Wind Speed Wind Dir Waves Ship Positions

Spirit of New Zealand

Last reported at 2017-Apr-27 22:06 UTC. Time now 2017-Apr-30 20:26 UTC.
Position S 36°50' E 174°46'.

Length 45 m; draft 4.1 m.

Type: Passenger vessel. MMSI: 512201000.

Date/timePositionNaut miles runAvg speedWind from/ knotsBaromVisibWave heightAir tempDewpointWater temp
2017-Apr-27 22:06S 36°50' E 174°46'0 1.6
2017-Apr-27 22:00S 36°51' E 174°46'0 0.0
2017-Apr-27 21:30S 36°51' E 174°46'0 0.0
2017-Apr-27 20:54S 36°51' E 174°46'0 0.0
2017-Apr-27 19:54S 36°51' E 174°46'0 0.0
2017-Apr-27 19:30S 36°51' E 174°46'0 0.0
2017-Apr-27 18:54S 36°51' E 174°46'0 0.0
2017-Apr-27 18:30S 36°51' E 174°46'0 0.0
2017-Apr-27 10:24S 36°51' E 174°46'0 0.0
2017-Apr-27 10:00S 36°51' E 174°46'0 0.0
2017-Apr-27 09:06S 36°51' E 174°46'0 0.0
2017-Apr-27 09:00S 36°51' E 174°46'0 0.0
2017-Apr-27 08:30S 36°51' E 174°46'0 0.0
2017-Apr-27 07:54S 36°51' E 174°46'0 0.0
2017-Apr-27 07:30S 36°51' E 174°46'0 0.0
2017-Apr-27 07:00S 36°51' E 174°46'0 0.0
2017-Apr-27 06:24S 36°51' E 174°46'0 0.0
2017-Apr-27 05:54S 36°51' E 174°46'0 0.0
2017-Apr-27 05:12S 36°51' E 174°46'0 0.0
2017-Apr-27 04:48S 36°51' E 174°46'0 0.0
2017-Apr-27 04:18S 36°51' E 174°46'0 0.0
2017-Apr-27 03:54S 36°51' E 174°46'0 1.0
2017-Apr-27 03:28S 36°50' E 174°46'1 1.3
2017-Apr-27 03:00S 36°50' E 174°46'0 0.1
2017-Apr-27 02:18S 36°50' E 174°46'1 2.5
2017-Apr-27 01:46S 36°50' E 174°45'1 0.6
2017-Apr-26 23:49S 36°51' E 174°46'1 1.5
2017-Apr-26 23:17S 36°50' E 174°45'2 4.8
2017-Apr-26 22:58S 36°50' E 174°47'2 4.5
2017-Apr-26 22:30S 36°49' E 174°49'2 3.0
2017-Apr-26 21:44S 36°50' E 174°47'1 3.0
2017-Apr-26 21:26S 36°51' E 174°46'0 0.0
2017-Apr-26 20:50S 36°51' E 174°46'0 0.0
2017-Apr-26 20:20S 36°51' E 174°46'0 0.0
2017-Apr-26 19:56S 36°51' E 174°46'0 0.0
2017-Apr-26 19:14S 36°51' E 174°46'0 0.0
2017-Apr-26 18:59S 36°51' E 174°46'1 0.0
2017-Apr-26 04:22S 36°50' E 174°46'3 9.3
2017-Apr-26 04:00S 36°50' E 174°50'3 6.4
2017-Apr-26 03:29S 36°49' E 174°54'1 0.9
2017-Apr-26 01:52S 36°48' E 174°55'3 6.7
2017-Apr-26 01:23S 36°45' E 174°57'1 3.8
2017-Apr-26 01:00S 36°44' E 174°56'1 2.8
2017-Apr-26 00:30S 36°43' E 174°55'1 2.1
2017-Apr-26 00:00S 36°42' E 174°55'3 6.2
2017-Apr-25 23:30S 36°39' E 174°53'3 5.9
2017-Apr-25 23:00S 36°36' E 174°52'3 5.3
2017-Apr-25 22:30S 36°34' E 174°50'3 5.5
2017-Apr-25 22:00S 36°32' E 174°47'3 5.6
2017-Apr-25 21:30S 36°31' E 174°44'1 0.3
2017-Apr-25 19:17S 36°30' E 174°44'0 0.1
2017-Apr-25 18:59S 36°30' E 174°44'0 0.0
2017-Apr-25 18:29S 36°30' E 174°44'0 0.0
2017-Apr-25 17:53S 36°30' E 174°44'0 0.0
2017-Apr-25 17:29S 36°30' E 174°44'0 0.0
2017-Apr-25 16:59S 36°30' E 174°44'0 0.0
2017-Apr-25 16:29S 36°30' E 174°44'0 0.0
2017-Apr-25 15:59S 36°30' E 174°44'0 0.0
2017-Apr-25 15:29S 36°30' E 174°44'0 0.0
2017-Apr-25 14:59S 36°30' E 174°44'0 0.0
2017-Apr-25 14:29S 36°30' E 174°44'0 0.0
2017-Apr-25 06:59S 36°30' E 174°44'0 0.0
2017-Apr-25 06:29S 36°30' E 174°44'0 0.0
2017-Apr-25 05:59S 36°30' E 174°44'0 0.0
2017-Apr-25 05:29S 36°30' E 174°44'0 0.0
2017-Apr-25 04:59S 36°30' E 174°44'0 0.0
2017-Apr-25 04:29S 36°30' E 174°44'2 3.6
2017-Apr-25 04:00S 36°32' E 174°45'1 2.9
2017-Apr-25 03:30S 36°31' E 174°47'3 6.0
2017-Apr-25 03:00S 36°29' E 174°49'1 2.8
2017-Apr-25 02:30S 36°28' E 174°49'4 1.3
2017-Apr-24 23:47S 36°25' E 174°46'0 0.0
2017-Apr-24 05:11S 36°25' E 174°46'0 0.0
2017-Apr-24 04:35S 36°25' E 174°46'0 0.0
2017-Apr-24 04:23S 36°25' E 174°46'0 0.0
2017-Apr-24 03:53S 36°25' E 174°46'0 0.1
2017-Apr-24 03:20S 36°25' E 174°46'1 3.5
2017-Apr-24 03:00S 36°24' E 174°47'5 9.2
2017-Apr-24 02:28S 36°23' E 174°53'4 7.3
2017-Apr-24 01:58S 36°20' E 174°56'7 7.8
2017-Apr-24 01:02S 36°16' E 175°03'0 5.7
2017-Apr-24 00:58S 36°16' E 175°04'  
2017-Apr-17 22:48S 36°50' E 174°46'  
Track history (hours):
 
Tides and Currents Weather Stations Pressure Air Temp Water Temp Dewpoint Dewpoint Depression Visibility Wind Speed Wind Dir Waves Ship Positions

Spirit of New Zealand

Last reported at 2017-Apr-27 22:06 UTC. Time now 2017-Apr-30 20:26 UTC.
Position S 36°50' E 174°46'.

Length 45 m; draft 4.1 m.

Type: Passenger vessel. MMSI: 512201000.

Date/timePositionNaut miles runAvg speedWind from/ knotsBaromVisibWave heightAir tempDewpointWater temp
2017-Apr-27 22:06S 36°50' E 174°46'0 1.6
2017-Apr-27 22:00S 36°51' E 174°46'0 0.0
2017-Apr-27 21:30S 36°51' E 174°46'0 0.0
2017-Apr-27 20:54S 36°51' E 174°46'0 0.0
2017-Apr-27 19:54S 36°51' E 174°46'0 0.0
2017-Apr-27 19:30S 36°51' E 174°46'0 0.0
2017-Apr-27 18:54S 36°51' E 174°46'0 0.0
2017-Apr-27 18:30S 36°51' E 174°46'0 0.0
2017-Apr-27 10:24S 36°51' E 174°46'0 0.0
2017-Apr-27 10:00S 36°51' E 174°46'0 0.0
2017-Apr-27 09:06S 36°51' E 174°46'0 0.0
2017-Apr-27 09:00S 36°51' E 174°46'0 0.0
2017-Apr-27 08:30S 36°51' E 174°46'0 0.0
2017-Apr-27 07:54S 36°51' E 174°46'0 0.0
2017-Apr-27 07:30S 36°51' E 174°46'0 0.0
2017-Apr-27 07:00S 36°51' E 174°46'0 0.0
2017-Apr-27 06:24S 36°51' E 174°46'0 0.0
2017-Apr-27 05:54S 36°51' E 174°46'0 0.0
2017-Apr-27 05:12S 36°51' E 174°46'0 0.0
2017-Apr-27 04:48S 36°51' E 174°46'0 0.0
2017-Apr-27 04:18S 36°51' E 174°46'0 0.0
2017-Apr-27 03:54S 36°51' E 174°46'0 1.0
2017-Apr-27 03:28S 36°50' E 174°46'1 1.3
2017-Apr-27 03:00S 36°50' E 174°46'0 0.1
2017-Apr-27 02:18S 36°50' E 174°46'1 2.5
2017-Apr-27 01:46S 36°50' E 174°45'1 0.6
2017-Apr-26 23:49S 36°51' E 174°46'1 1.5
2017-Apr-26 23:17S 36°50' E 174°45'2 4.8
2017-Apr-26 22:58S 36°50' E 174°47'2 4.5
2017-Apr-26 22:30S 36°49' E 174°49'2 3.0
2017-Apr-26 21:44S 36°50' E 174°47'1 3.0
2017-Apr-26 21:26S 36°51' E 174°46'0 0.0
2017-Apr-26 20:50S 36°51' E 174°46'0 0.0
2017-Apr-26 20:20S 36°51' E 174°46'0 0.0
2017-Apr-26 19:56S 36°51' E 174°46'0 0.0
2017-Apr-26 19:14S 36°51' E 174°46'0 0.0
2017-Apr-26 18:59S 36°51' E 174°46'1 0.0
2017-Apr-26 04:22S 36°50' E 174°46'3 9.3
2017-Apr-26 04:00S 36°50' E 174°50'3 6.4
2017-Apr-26 03:29S 36°49' E 174°54'1 0.9
2017-Apr-26 01:52S 36°48' E 174°55'3 6.7
2017-Apr-26 01:23S 36°45' E 174°57'1 3.8
2017-Apr-26 01:00S 36°44' E 174°56'1 2.8
2017-Apr-26 00:30S 36°43' E 174°55'1 2.1
2017-Apr-26 00:00S 36°42' E 174°55'3 6.2
2017-Apr-25 23:30S 36°39' E 174°53'3 5.9
2017-Apr-25 23:00S 36°36' E 174°52'3 5.3
2017-Apr-25 22:30S 36°34' E 174°50'3 5.5
2017-Apr-25 22:00S 36°32' E 174°47'3 5.6
2017-Apr-25 21:30S 36°31' E 174°44'1 0.3
2017-Apr-25 19:17S 36°30' E 174°44'0 0.1
2017-Apr-25 18:59S 36°30' E 174°44'0 0.0
2017-Apr-25 18:29S 36°30' E 174°44'0 0.0
2017-Apr-25 17:53S 36°30' E 174°44'0 0.0
2017-Apr-25 17:29S 36°30' E 174°44'0 0.0
2017-Apr-25 16:59S 36°30' E 174°44'0 0.0
2017-Apr-25 16:29S 36°30' E 174°44'0 0.0
2017-Apr-25 15:59S 36°30' E 174°44'0 0.0
2017-Apr-25 15:29S 36°30' E 174°44'0 0.0
2017-Apr-25 14:59S 36°30' E 174°44'0 0.0
2017-Apr-25 14:29S 36°30' E 174°44'0 0.0
2017-Apr-25 06:59S 36°30' E 174°44'0 0.0
2017-Apr-25 06:29S 36°30' E 174°44'0 0.0
2017-Apr-25 05:59S 36°30' E 174°44'0 0.0
2017-Apr-25 05:29S 36°30' E 174°44'0 0.0
2017-Apr-25 04:59S 36°30' E 174°44'0 0.0
2017-Apr-25 04:29S 36°30' E 174°44'2 3.6
2017-Apr-25 04:00S 36°32' E 174°45'1 2.9
2017-Apr-25 03:30S 36°31' E 174°47'3 6.0
2017-Apr-25 03:00S 36°29' E 174°49'1 2.8
2017-Apr-25 02:30S 36°28' E 174°49'4 1.3
2017-Apr-24 23:47S 36°25' E 174°46'0 0.0
2017-Apr-24 05:11S 36°25' E 174°46'0 0.0
2017-Apr-24 04:35S 36°25' E 174°46'0 0.0
2017-Apr-24 04:23S 36°25' E 174°46'0 0.0
2017-Apr-24 03:53S 36°25' E 174°46'0 0.1
2017-Apr-24 03:20S 36°25' E 174°46'1 3.5
2017-Apr-24 03:00S 36°24' E 174°47'5 9.2
2017-Apr-24 02:28S 36°23' E 174°53'4 7.3
2017-Apr-24 01:58S 36°20' E 174°56'7 7.8
2017-Apr-24 01:02S 36°16' E 175°03'0 5.7
2017-Apr-24 00:58S 36°16' E 175°04'  
2017-Apr-17 22:48S 36°50' E 174°46'  

Dump ship's entire track history